Farmville, Virginia
Current Conditions -  °F | °C
As of 10:55 PM on Tuesday 27 Jan 2015 (Local Time) from KFVX Reporting Station
Overcast Overcast  
Wind Chill: 32°   Ceiling: 4900
Heat Index: 32°   Visibility: 10mi
Dew Point: 17°   Wind: 0mph
Humidity: 56%   Direction: NA
Pressure: 29.96"   Gusts: NA
Location:  37.3°N, 78.39°W
Report Text: KFVX 280355Z AUTO 00000KT 10SM OVC049 00/M08 A2996 RMK AO2 T10021081
Loading
Personal Weather Stations






























Interactive Weather Map New forecast layout! Learn more

10-Day Weather Forecast

Advertisements
Track Severe Weather on mobile